createdAt,value
2022-08-26T00:02:07.740Z,18.97
2022-08-26T00:04:36.393Z,18.98
2022-08-26T00:07:06.244Z,18.97
2022-08-26T00:09:39.074Z,18.96
2022-08-26T00:12:12.428Z,18.96
2022-08-26T00:14:41.989Z,18.95
2022-08-26T00:17:10.700Z,18.92
2022-08-26T00:19:38.934Z,18.94
2022-08-26T00:22:08.691Z,18.93
2022-08-26T00:24:36.814Z,18.92
2022-08-26T00:27:06.426Z,18.92
2022-08-26T00:29:37.672Z,18.92
2022-08-26T00:32:06.773Z,18.92
2022-08-26T00:34:36.857Z,18.91
2022-08-26T00:37:09.006Z,18.91
2022-08-26T00:39:40.082Z,18.89
2022-08-26T00:42:08.512Z,18.86
2022-08-26T00:44:36.668Z,18.88
2022-08-26T00:47:09.643Z,18.87
2022-08-26T00:49:40.338Z,18.85
2022-08-26T00:52:13.317Z,18.85
2022-08-26T00:54:50.893Z,18.77
2022-08-26T00:57:21.236Z,18.78
2022-08-26T00:59:54.453Z,18.75
2022-08-26T01:02:22.755Z,18.72
2022-08-26T01:04:54.405Z,18.69
2022-08-26T01:07:25.814Z,18.65
2022-08-26T01:09:55.835Z,18.61
2022-08-26T01:12:26.409Z,18.54
2022-08-26T01:14:54.992Z,18.49
2022-08-26T01:17:24.148Z,18.47
2022-08-26T01:19:57.369Z,18.42
2022-08-26T01:22:31.216Z,18.41
2022-08-26T01:25:04.066Z,18.40
2022-08-26T01:27:35.548Z,18.35
2022-08-26T01:30:04.293Z,18.30
2022-08-26T01:32:34.463Z,18.26
2022-08-26T01:35:03.373Z,18.24
2022-08-26T01:37:38.978Z,18.20
2022-08-26T01:40:17.884Z,18.17
2022-08-26T01:42:46.909Z,18.14
2022-08-26T01:45:19.700Z,18.13
2022-08-26T01:47:50.021Z,18.13
2022-08-26T01:50:30.636Z,18.12
2022-08-26T01:53:07.136Z,18.13
2022-08-26T01:55:38.897Z,18.14
2022-08-26T01:58:21.101Z,18.14
2022-08-26T02:00:49.605Z,18.19
2022-08-26T02:03:22.445Z,18.20
2022-08-26T02:05:54.973Z,18.27
2022-08-26T02:08:27.655Z,18.30
2022-08-26T02:10:57.448Z,18.30
2022-08-26T02:13:30.127Z,18.32
2022-08-26T02:15:59.164Z,18.32
2022-08-26T02:18:29.448Z,18.31
2022-08-26T02:20:58.209Z,18.33
2022-08-26T02:23:26.880Z,18.34
2022-08-26T02:26:03.771Z,18.38
2022-08-26T02:28:40.056Z,18.41
2022-08-26T02:31:08.961Z,18.40
2022-08-26T02:33:38.277Z,18.41
2022-08-26T02:36:12.156Z,18.38
2022-08-26T02:38:43.041Z,18.33
2022-08-26T02:41:12.975Z,18.26
2022-08-26T02:43:42.255Z,18.13
2022-08-26T02:46:10.904Z,18.12
2022-08-26T02:48:39.233Z,18.13
2022-08-26T02:51:08.037Z,18.07
2022-08-26T02:53:36.526Z,18.03
2022-08-26T02:56:05.649Z,18.04
2022-08-26T02:58:35.554Z,18.00
2022-08-26T03:01:04.867Z,17.99
2022-08-26T03:03:33.823Z,18.01
2022-08-26T03:06:02.355Z,18.04
2022-08-26T03:08:30.532Z,18.04
2022-08-26T03:10:59.302Z,18.04
2022-08-26T03:13:30.356Z,18.05
2022-08-26T03:16:02.004Z,18.07
2022-08-26T03:18:30.686Z,18.06
2022-08-26T03:20:58.894Z,18.03
2022-08-26T03:23:27.065Z,18.02
2022-08-26T03:25:56.860Z,18.01
2022-08-26T03:28:27.149Z,17.99
2022-08-26T03:30:54.827Z,17.98
2022-08-26T03:33:24.884Z,18.00
2022-08-26T03:35:53.981Z,17.92
2022-08-26T03:38:25.157Z,17.91
2022-08-26T03:40:53.406Z,17.92
2022-08-26T03:43:22.464Z,17.93
2022-08-26T03:45:51.323Z,17.93
2022-08-26T03:48:20.770Z,17.92
2022-08-26T03:50:50.551Z,17.88
2022-08-26T03:53:20.491Z,17.84
2022-08-26T03:55:48.897Z,17.82
2022-08-26T03:58:20.650Z,17.82
2022-08-26T04:00:49.466Z,17.85
2022-08-26T04:03:37.486Z,17.78
2022-08-26T04:06:07.640Z,17.79
2022-08-26T04:08:35.861Z,17.73
2022-08-26T04:11:04.002Z,17.70
2022-08-26T04:13:32.587Z,17.66
2022-08-26T04:16:00.889Z,17.63
2022-08-26T04:18:33.195Z,17.65
2022-08-26T04:21:08.026Z,17.63
2022-08-26T04:23:47.282Z,17.70
2022-08-26T04:26:16.401Z,17.62
2022-08-26T04:28:44.942Z,17.64
2022-08-26T04:31:14.864Z,17.59
2022-08-26T04:33:44.862Z,17.43
2022-08-26T04:36:16.252Z,17.41
2022-08-26T04:38:45.853Z,17.42
2022-08-26T04:41:15.002Z,17.35
2022-08-26T04:43:45.609Z,17.33
2022-08-26T04:46:17.580Z,17.32
2022-08-26T04:48:47.990Z,17.22
2022-08-26T04:51:17.835Z,17.17
2022-08-26T04:53:46.868Z,17.13
2022-08-26T04:56:15.691Z,17.14
2022-08-26T04:58:43.860Z,17.13
2022-08-26T05:01:12.098Z,16.97
2022-08-26T05:03:40.937Z,16.94
2022-08-26T05:06:09.966Z,16.94
2022-08-26T05:08:39.601Z,16.91
2022-08-26T05:11:09.640Z,16.91
2022-08-26T05:13:39.191Z,16.90
2022-08-26T05:16:11.557Z,16.93
2022-08-26T05:18:41.154Z,16.91
2022-08-26T05:21:18.347Z,16.88
2022-08-26T05:23:48.297Z,16.90
2022-08-26T05:26:17.687Z,16.89
2022-08-26T05:28:51.667Z,16.91
2022-08-26T05:31:25.338Z,16.89
2022-08-26T05:33:53.851Z,16.89
2022-08-26T05:36:23.893Z,16.87
2022-08-26T05:38:57.869Z,16.89
2022-08-26T05:41:34.565Z,16.93
2022-08-26T05:44:07.061Z,16.96
2022-08-26T05:46:37.032Z,16.95
2022-08-26T05:49:12.849Z,16.97
2022-08-26T05:51:42.152Z,16.95
2022-08-26T05:54:11.832Z,16.98
2022-08-26T05:56:40.346Z,16.94
2022-08-26T05:59:15.438Z,16.96
2022-08-26T06:01:44.896Z,16.96
2022-08-26T06:04:13.854Z,16.96
2022-08-26T06:06:42.871Z,16.96
2022-08-26T06:09:14.654Z,17.02
2022-08-26T06:11:45.794Z,17.12
2022-08-26T06:14:13.869Z,17.10
2022-08-26T06:16:45.193Z,17.11
2022-08-26T06:19:15.544Z,17.08
2022-08-26T06:21:47.809Z,17.11
2022-08-26T06:24:41.350Z,17.16
2022-08-26T06:27:13.786Z,17.13
2022-08-26T06:29:42.728Z,17.18
2022-08-26T06:32:10.855Z,17.14
2022-08-26T06:34:39.098Z,17.18
2022-08-26T06:37:07.316Z,17.16
2022-08-26T06:39:37.640Z,17.16
2022-08-26T06:42:09.301Z,17.18
2022-08-26T06:44:41.133Z,17.19
2022-08-26T06:47:09.551Z,17.09
2022-08-26T06:49:38.395Z,17.13
2022-08-26T06:52:08.105Z,17.11
2022-08-26T06:54:43.125Z,17.14
2022-08-26T06:57:14.251Z,17.17
2022-08-26T06:59:44.855Z,17.28
2022-08-26T07:02:13.591Z,17.33
2022-08-26T07:04:42.383Z,17.29
2022-08-26T07:07:14.333Z,17.30
2022-08-26T07:09:43.817Z,17.30
2022-08-26T07:12:12.063Z,17.28
2022-08-26T07:14:41.489Z,17.22
2022-08-26T07:17:15.770Z,17.13
2022-08-26T07:19:44.718Z,17.11
2022-08-26T07:22:14.458Z,17.07
2022-08-26T07:24:44.098Z,17.14
2022-08-26T07:27:15.112Z,17.17
2022-08-26T07:29:44.973Z,17.18
2022-08-26T07:32:15.022Z,17.27
2022-08-26T07:34:44.055Z,17.29
2022-08-26T07:37:12.349Z,17.32
2022-08-26T07:39:41.789Z,17.36
2022-08-26T07:42:14.469Z,17.38
2022-08-26T07:44:43.542Z,17.44
2022-08-26T07:47:25.126Z,17.45
2022-08-26T07:49:55.228Z,17.47
2022-08-26T07:52:26.733Z,17.49
2022-08-26T07:54:56.162Z,17.50
2022-08-26T07:57:26.408Z,17.53
2022-08-26T07:59:55.264Z,17.52
2022-08-26T08:02:24.882Z,17.56
2022-08-26T08:04:54.697Z,17.62
2022-08-26T08:07:25.763Z,17.66
2022-08-26T08:10:11.476Z,17.61
2022-08-26T08:12:41.712Z,17.55
2022-08-26T08:15:11.665Z,17.54
2022-08-26T08:17:39.859Z,17.41
2022-08-26T08:20:09.424Z,17.45
2022-08-26T08:22:37.616Z,17.41
2022-08-26T08:25:08.158Z,17.38
2022-08-26T08:27:41.875Z,17.41
2022-08-26T08:30:13.899Z,17.38
2022-08-26T08:32:43.641Z,17.44
2022-08-26T08:35:14.050Z,17.40
2022-08-26T08:37:43.712Z,17.38
2022-08-26T08:40:18.472Z,17.39
2022-08-26T08:42:55.655Z,17.42
2022-08-26T08:45:36.294Z,17.40
2022-08-26T08:48:14.825Z,17.45
2022-08-26T08:50:45.931Z,17.46
2022-08-26T08:53:18.682Z,17.45
2022-08-26T08:56:00.485Z,17.47
2022-08-26T08:58:43.789Z,17.49
2022-08-26T09:01:25.143Z,17.51
2022-08-26T09:04:17.308Z,17.49
2022-08-26T09:06:48.683Z,17.52
2022-08-26T09:09:24.158Z,17.48
2022-08-26T09:11:53.081Z,17.46
2022-08-26T09:14:23.092Z,17.46
2022-08-26T09:17:01.274Z,17.55
2022-08-26T09:19:40.210Z,17.48
2022-08-26T09:22:09.615Z,17.54
2022-08-26T09:24:41.730Z,17.54
2022-08-26T09:27:37.841Z,17.66
2022-08-26T09:30:11.541Z,17.75
2022-08-26T09:32:40.574Z,17.82
2022-08-26T09:35:24.545Z,17.90
2022-08-26T09:37:53.127Z,17.99
2022-08-26T09:40:27.604Z,18.08
2022-08-26T09:43:15.966Z,18.11
2022-08-26T09:45:59.249Z,18.28
2022-08-26T09:48:31.153Z,18.45
2022-08-26T09:51:00.620Z,18.49
2022-08-26T09:53:31.113Z,18.58
2022-08-26T09:56:17.048Z,18.74
2022-08-26T09:58:47.352Z,18.96
2022-08-26T10:01:30.119Z,19.05
2022-08-26T10:04:07.817Z,19.02
2022-08-26T10:06:40.325Z,19.06
2022-08-26T10:09:14.089Z,19.13
2022-08-26T10:11:47.722Z,19.20
2022-08-26T10:14:20.515Z,19.13
2022-08-26T10:16:56.523Z,19.14
2022-08-26T10:19:41.319Z,19.15
2022-08-26T10:22:21.903Z,19.10
2022-08-26T10:24:55.270Z,19.08
2022-08-26T10:27:34.260Z,19.03
2022-08-26T10:30:08.799Z,18.99
2022-08-26T10:32:42.735Z,19.15
2022-08-26T10:35:14.793Z,19.18
2022-08-26T10:37:47.068Z,19.19
2022-08-26T10:40:21.937Z,19.23
2022-08-26T10:42:55.689Z,19.27
2022-08-26T10:45:27.358Z,19.28
2022-08-26T10:48:04.121Z,19.35
2022-08-26T10:50:34.766Z,19.45
2022-08-26T10:53:12.720Z,19.52
2022-08-26T10:55:49.645Z,19.72
2022-08-26T10:58:44.655Z,19.76
2022-08-26T11:01:36.407Z,20.01
2022-08-26T11:04:22.419Z,20.06
2022-08-26T11:06:52.306Z,20.10
2022-08-26T11:09:45.575Z,20.03
2022-08-26T11:12:49.162Z,19.98
2022-08-26T11:15:50.966Z,19.83
2022-08-26T11:18:38.299Z,19.80
2022-08-26T11:21:47.855Z,19.79
2022-08-26T11:24:46.187Z,19.66
2022-08-26T11:27:47.553Z,19.69
2022-08-26T11:30:57.795Z,19.61
2022-08-26T11:34:11.027Z,19.65
2022-08-26T11:36:56.161Z,19.70
2022-08-26T11:39:29.999Z,19.73
2022-08-26T11:42:01.461Z,19.69
2022-08-26T11:44:39.252Z,19.67
2022-08-26T11:47:11.526Z,19.66
2022-08-26T11:49:41.726Z,19.62
2022-08-26T11:52:14.204Z,19.65
2022-08-26T11:54:42.446Z,19.68
2022-08-26T11:57:14.740Z,19.73
2022-08-26T11:59:43.584Z,19.76
2022-08-26T12:02:19.286Z,19.84
2022-08-26T12:04:51.946Z,20.04
2022-08-26T12:07:25.503Z,20.29
2022-08-26T12:09:58.178Z,20.40
2022-08-26T12:12:35.017Z,20.38
2022-08-26T12:15:11.377Z,20.30
2022-08-26T12:17:40.883Z,20.26
2022-08-26T12:20:19.620Z,20.23
2022-08-26T12:22:49.683Z,20.23
2022-08-26T12:25:24.135Z,20.16
2022-08-26T12:27:54.072Z,20.13
2022-08-26T12:30:24.705Z,20.16
2022-08-26T12:33:21.890Z,20.06
2022-08-26T12:35:56.626Z,20.06
2022-08-26T12:38:28.276Z,20.06
2022-08-26T12:40:57.058Z,20.10
2022-08-26T12:43:40.687Z,20.20
2022-08-26T12:46:12.087Z,20.25
2022-08-26T12:48:44.846Z,20.22
2022-08-26T12:51:24.778Z,20.13
2022-08-26T12:53:55.138Z,20.02
2022-08-26T12:56:30.655Z,19.89
2022-08-26T12:59:04.676Z,19.92
2022-08-26T13:01:39.179Z,20.09
2022-08-26T13:04:07.828Z,20.26
2022-08-26T13:06:36.129Z,20.40
2022-08-26T13:09:32.396Z,20.45
2022-08-26T13:12:02.230Z,20.49
2022-08-26T13:14:30.568Z,20.49
2022-08-26T13:16:58.817Z,20.34
2022-08-26T13:19:27.326Z,20.20
2022-08-26T13:21:57.718Z,20.05
2022-08-26T13:24:35.449Z,19.91
2022-08-26T13:27:04.837Z,20.00
2022-08-26T13:29:33.202Z,20.08
2022-08-26T13:32:02.174Z,20.26
2022-08-26T13:34:31.461Z,20.37
2022-08-26T13:37:00.243Z,20.47
2022-08-26T13:39:30.460Z,20.47
2022-08-26T13:41:58.636Z,20.50
2022-08-26T13:44:27.182Z,20.41
2022-08-26T13:46:55.415Z,20.41
2022-08-26T13:49:23.985Z,20.42
2022-08-26T13:51:52.209Z,20.49
2022-08-26T13:54:20.340Z,20.56
2022-08-26T13:56:49.864Z,20.64
2022-08-26T13:59:18.115Z,20.68
2022-08-26T14:01:46.936Z,20.59
2022-08-26T14:04:15.169Z,20.43
2022-08-26T14:06:43.462Z,20.22
2022-08-26T14:09:11.650Z,20.00
2022-08-26T14:11:50.617Z,19.79
2022-08-26T14:14:25.106Z,19.58
2022-08-26T14:16:59.278Z,19.47
2022-08-26T14:19:29.693Z,19.35
2022-08-26T14:22:00.785Z,19.30
2022-08-26T14:24:30.056Z,19.28
2022-08-26T14:26:58.641Z,19.35
2022-08-26T14:29:28.405Z,19.41
2022-08-26T14:31:58.742Z,19.51
2022-08-26T14:34:27.269Z,19.59
2022-08-26T14:36:55.437Z,19.66
2022-08-26T14:39:23.741Z,19.74
2022-08-26T14:41:56.604Z,19.75
2022-08-26T14:44:30.645Z,19.75
2022-08-26T14:47:01.923Z,19.76
2022-08-26T14:49:31.281Z,19.71
2022-08-26T14:51:59.491Z,19.75
2022-08-26T14:54:26.925Z,19.77
2022-08-26T14:56:58.691Z,19.82
2022-08-26T14:59:31.522Z,19.82
2022-08-26T15:02:00.562Z,19.80
2022-08-26T15:04:29.685Z,19.79
2022-08-26T15:06:59.897Z,19.76
2022-08-26T15:09:29.326Z,19.75
2022-08-26T15:11:57.683Z,19.73
2022-08-26T15:14:28.588Z,19.71
2022-08-26T15:17:00.541Z,19.69
2022-08-26T15:19:29.509Z,19.65
2022-08-26T15:21:57.749Z,19.63
2022-08-26T15:24:28.856Z,19.65
2022-08-26T15:26:57.244Z,19.67
2022-08-26T15:29:25.378Z,19.69
2022-08-26T15:31:55.284Z,19.74
2022-08-26T15:34:26.963Z,19.78
2022-08-26T15:36:55.395Z,19.77
2022-08-26T15:39:23.607Z,19.79
2022-08-26T15:41:52.120Z,19.80
2022-08-26T15:44:20.820Z,19.86
2022-08-26T15:46:51.233Z,19.90
2022-08-26T15:49:21.422Z,19.98
2022-08-26T15:51:51.446Z,20.00
2022-08-26T15:54:22.863Z,20.02
2022-08-26T15:56:52.438Z,20.04
2022-08-26T15:59:22.521Z,20.09
2022-08-26T16:01:51.202Z,20.09
2022-08-26T16:04:20.305Z,20.12
2022-08-26T16:06:52.301Z,20.17
2022-08-26T16:09:24.203Z,20.17
2022-08-26T16:11:52.742Z,20.13
2022-08-26T16:14:21.394Z,20.16
2022-08-26T16:16:49.958Z,20.16
2022-08-26T16:19:18.401Z,20.18
2022-08-26T16:21:47.359Z,20.16
2022-08-26T16:24:16.942Z,20.15
2022-08-26T16:26:45.596Z,20.21
2022-08-26T16:29:15.717Z,20.12
2022-08-26T16:31:44.012Z,20.06
2022-08-26T16:34:12.533Z,20.04
2022-08-26T16:36:41.154Z,20.02
2022-08-26T16:39:10.863Z,20.00
2022-08-26T16:41:40.504Z,19.99
2022-08-26T16:44:11.503Z,20.01
2022-08-26T16:46:41.285Z,19.95
2022-08-26T16:49:09.474Z,19.97
2022-08-26T16:51:38.423Z,19.91
2022-08-26T16:54:08.248Z,19.91
2022-08-26T16:56:37.470Z,19.91
2022-08-26T16:59:10.582Z,19.93
2022-08-26T17:01:38.985Z,19.92
2022-08-26T17:04:07.310Z,19.95
2022-08-26T17:06:35.500Z,19.92
2022-08-26T17:09:03.687Z,19.92
2022-08-26T17:11:31.968Z,19.93
2022-08-26T17:14:00.236Z,19.89
2022-08-26T17:16:29.970Z,19.88
2022-08-26T17:18:58.343Z,19.87
2022-08-26T17:21:27.982Z,19.77
2022-08-26T17:23:57.367Z,19.79
2022-08-26T17:26:25.622Z,19.78
2022-08-26T17:28:53.965Z,19.76
2022-08-26T17:31:23.426Z,19.78
2022-08-26T17:33:54.320Z,19.75
2022-08-26T17:36:28.161Z,19.72
2022-08-26T17:38:57.806Z,19.68
2022-08-26T17:41:27.350Z,19.64
2022-08-26T17:43:55.680Z,19.62
2022-08-26T17:46:24.850Z,19.58
2022-08-26T17:48:54.485Z,19.45
2022-08-26T17:51:23.618Z,19.35
2022-08-26T17:53:52.952Z,19.26
2022-08-26T17:56:25.600Z,19.14
2022-08-26T17:58:55.088Z,19.13
2022-08-26T18:01:27.310Z,19.05
2022-08-26T18:04:00.346Z,18.92
2022-08-26T18:06:31.637Z,18.85
2022-08-26T18:09:00.974Z,18.80
2022-08-26T18:11:30.186Z,18.77
2022-08-26T18:13:59.021Z,18.78
2022-08-26T18:16:27.587Z,18.74
2022-08-26T18:18:57.263Z,18.71
2022-08-26T18:21:27.598Z,18.62
2022-08-26T18:23:56.056Z,18.61
2022-08-26T18:26:27.152Z,18.58
2022-08-26T18:28:55.485Z,18.52
2022-08-26T18:31:23.923Z,18.51
2022-08-26T18:33:52.396Z,18.49
2022-08-26T18:36:25.209Z,18.47
2022-08-26T18:38:54.201Z,18.48
2022-08-26T18:41:24.778Z,18.47
2022-08-26T18:43:54.309Z,18.45
2022-08-26T18:46:25.238Z,18.44
2022-08-26T18:48:54.846Z,18.43
2022-08-26T18:51:26.794Z,18.43
2022-08-26T18:53:55.165Z,18.41
2022-08-26T18:56:23.923Z,18.38
2022-08-26T18:58:52.262Z,18.37
2022-08-26T19:01:25.441Z,18.35
2022-08-26T19:03:55.942Z,18.34
2022-08-26T19:06:27.002Z,18.33
2022-08-26T19:08:55.656Z,18.31
2022-08-26T19:11:31.203Z,18.33
2022-08-26T19:14:01.029Z,18.34
2022-08-26T19:16:30.469Z,18.33
2022-08-26T19:19:00.773Z,18.34
2022-08-26T19:21:32.794Z,18.35
2022-08-26T19:24:03.052Z,18.32
2022-08-26T19:26:32.975Z,18.30
2022-08-26T19:29:01.770Z,18.30
2022-08-26T19:31:30.019Z,18.29
2022-08-26T19:33:59.103Z,18.26
2022-08-26T19:36:29.743Z,18.25
2022-08-26T19:38:58.373Z,18.21
2022-08-26T19:41:37.036Z,18.18
2022-08-26T19:44:08.451Z,18.16
2022-08-26T19:49:10.387Z,18.11
2022-08-26T19:51:39.948Z,18.08
2022-08-26T19:54:08.141Z,18.06
2022-08-26T19:56:36.670Z,18.05
2022-08-26T19:59:05.052Z,18.03
2022-08-26T20:01:33.847Z,18.00
2022-08-26T20:04:02.957Z,17.99
2022-08-26T20:06:31.337Z,17.98
2022-08-26T20:09:01.263Z,17.95
2022-08-26T20:11:29.929Z,17.93
2022-08-26T20:13:59.202Z,17.88
2022-08-26T20:16:27.497Z,17.82
2022-08-26T20:19:13.269Z,17.79
2022-08-26T20:21:42.687Z,17.78
2022-08-26T20:24:14.874Z,17.85
2022-08-26T20:26:45.192Z,17.76
2022-08-26T20:29:16.026Z,17.76
2022-08-26T20:31:44.856Z,17.75
2022-08-26T20:34:14.483Z,17.69
2022-08-26T20:36:43.653Z,17.65
2022-08-26T20:39:14.181Z,17.54
2022-08-26T20:41:42.408Z,17.50
2022-08-26T20:44:11.485Z,17.44
2022-08-26T20:46:39.557Z,17.39
2022-08-26T20:49:08.318Z,17.38
2022-08-26T20:51:38.587Z,17.36
2022-08-26T20:54:08.120Z,17.29
2022-08-26T20:56:38.161Z,17.28
2022-08-26T20:59:08.231Z,17.36
2022-08-26T21:01:42.054Z,17.36
2022-08-26T21:04:13.943Z,17.24
2022-08-26T21:06:45.125Z,17.20
2022-08-26T21:09:20.728Z,17.16
2022-08-26T21:11:51.305Z,17.17
2022-08-26T21:14:25.729Z,17.25
2022-08-26T21:16:54.838Z,17.16
2022-08-26T21:19:23.615Z,17.15
2022-08-26T21:21:51.876Z,17.15
2022-08-26T21:24:20.143Z,17.15
2022-08-26T21:26:49.124Z,17.17
2022-08-26T21:29:18.784Z,17.16
2022-08-26T21:31:47.203Z,17.09
2022-08-26T21:34:16.012Z,17.11
2022-08-26T21:36:44.665Z,17.10
2022-08-26T21:39:12.933Z,17.09
2022-08-26T21:41:42.632Z,17.11
2022-08-26T21:44:11.746Z,17.10
2022-08-26T21:46:41.635Z,17.12
2022-08-26T21:49:12.532Z,17.11
2022-08-26T21:51:44.128Z,17.08
2022-08-26T21:54:13.364Z,17.10
2022-08-26T21:56:44.711Z,17.10
2022-08-26T21:59:13.831Z,17.07
2022-08-26T22:01:43.326Z,17.06
2022-08-26T22:04:11.878Z,17.02
2022-08-26T22:06:46.530Z,17.02
2022-08-26T22:09:16.768Z,17.02
2022-08-26T22:11:45.870Z,17.02
2022-08-26T22:14:14.659Z,17.00
2022-08-26T22:16:50.166Z,16.99
2022-08-26T22:19:20.047Z,16.98
2022-08-26T22:21:50.143Z,16.96
2022-08-26T22:24:18.981Z,16.96
2022-08-26T22:26:48.248Z,16.97
2022-08-26T22:29:17.416Z,16.99
2022-08-26T22:31:47.487Z,16.99
2022-08-26T22:34:19.545Z,16.96
2022-08-26T22:36:49.558Z,16.93
2022-08-26T22:39:22.166Z,16.93
2022-08-26T22:41:51.207Z,16.89
2022-08-26T22:44:22.345Z,16.82
2022-08-26T22:46:54.845Z,16.78
2022-08-26T22:49:23.316Z,16.75
2022-08-26T22:51:52.147Z,16.70
2022-08-26T22:54:20.828Z,16.70
2022-08-26T22:56:49.073Z,16.70
2022-08-26T22:59:18.000Z,16.67
2022-08-26T23:01:47.480Z,16.67
2022-08-26T23:04:17.065Z,16.67
2022-08-26T23:06:47.546Z,16.66
2022-08-26T23:09:18.326Z,16.67
2022-08-26T23:11:47.566Z,16.67
2022-08-26T23:14:16.465Z,16.65
2022-08-26T23:16:44.761Z,16.64
2022-08-26T23:19:15.364Z,16.65
2022-08-26T23:21:45.350Z,16.67
2022-08-26T23:24:14.903Z,16.69
2022-08-26T23:26:43.585Z,16.70
2022-08-26T23:29:14.126Z,16.74
2022-08-26T23:31:43.194Z,16.74
2022-08-26T23:34:29.389Z,16.74
2022-08-26T23:37:00.264Z,16.75
2022-08-26T23:39:29.415Z,16.72
2022-08-26T23:41:58.280Z,16.71
2022-08-26T23:44:26.945Z,16.71
2022-08-26T23:46:55.491Z,16.69
2022-08-26T23:49:24.346Z,16.64
2022-08-26T23:52:10.297Z,16.60
2022-08-26T23:54:40.738Z,16.59
2022-08-26T23:57:09.785Z,16.54
2022-08-26T23:59:38.851Z,16.51
